KDAN/DAN METAR and TAF weather

Enter ICAO airport designator
Station Type Date Time Source
KDAN METAR 2018/07/16 23:53 UTC NOAA

KDAN 162353Z AUTO 19003KT 10SM FEW060 SCT100 SCT120 24/23 A2997 RMK AO2 PK WND 22031/2315 RAB15E47 SLP137 P0011 60011 T02440233 10311 20244 55002


Station Type Date Time Source
KDAN Decoded METAR 2018/07/16 23:53 UTC NOAA

DANVILLE REGIONAL AIRPORT, VA, United States (KDAN) 36-34N 079-20W 175M
Jul 16, 2018 - 07:53 PM EDT / 2018.07.16 2353 UTC
Wind: from the S (190 degrees) at 3 MPH (3 KT):0
Visibility: 10 mile(s):0
Sky conditions: partly cloudy
Precipitation last hour: 0.11 inches
Temperature: 75.9 F (24.4 C)
Dew Point: 73.9 F (23.3 C)
Relative Humidity: 93%
Pressure (altimeter): 29.97 in. Hg (1014 hPa)
Pressure tendency: 0.01 inches (0.2 hPa) lower than three hours ago
ob: KDAN 162353Z AUTO 19003KT 10SM FEW060 SCT100 SCT120 24/23 A2997 RMK AO2 PK WND 22031/2315 RAB15E47 SLP137 P0011 60011 T02440233 10311 20244 55002
cycle: 0

Station Type Date Time Source
KDAN TAF 2018/07/16 21:33 UTC NOAA

TAF
AMD KDAN 162031Z 1621/1718 VRB04KT P6SM SCT070
FM170000 VRB03KT P6SM VCTS BKN050CB
FM170200 VRB03KT P6SM SCT070 OVC200
FM171700 26007KT P6SM SCT020 BKN040


Example: see airport list